Language selection

My Weather Profile Weather Topics  | 

Lake Winnipeg - south basin: Past 24 Hour Conditions

 

Norway House Airport

09:00 AM CST 01 February 2023
Disclaimer

This table is a summary of hourly weather conditions for the past 24 hours.
Please note that these observations might not always be representative of weather conditions over their associated marine area.

Date / Time
(CST)
Wind(knots) Conditions Visibility(km) Pressure(kPa) Air tempC) Relative humidity(%) Dew pointC) Wind Chill
01 February 2023
9:00 WSW 7 Mainly Sunny 16 101.7 -32 74 -35 -43
8:00 WSW 4 Partly Cloudy 16 101.7 -34 73 -37 -43
7:00 SSW 4 Light Snow 16 101.8 -35 71 -38 -43
6:00 SSW 4 Partly Cloudy 16 101.8 -36 71 -39 -45
5:00 SSW 4 Clear 16 101.8 -36 71 -39 -45
4:00 SSW 4 Clear 16 101.9 -36 71 -39 -44
3:00 SW 4 Clear 16 101.9 -37 71 -40 -46
2:00 SW 3 Clear 16 101.9 -37 68 -41 -44
1:00 SSW 2 Clear 16 101.9 -36 71 -39 -41
0:00 SSW 2 Clear 16 101.9 -35 73 -38 -40
31 January 2023
23:00 SW 3 Clear 16 101.9 -34 73 -37 -40
22:00 SW 3 Clear 16 102.0 -35 74 -38 -41
21:00 SW 2 Clear 16 102.0 -33 75 -36 -38
20:00 SSW 3 Clear 16 102.0 -31 76 -34 -37
19:00 WSW 4 Clear 16 102.0 -32 76 -35 -40
18:00 SW 4 Clear 16 102.0 -29 75 -32 -37
17:00 WNW 3 Sunny 16 102.0 -26 66 -31 -31
16:00 WNW 2 Sunny 16 101.9 -25 60 -31 -29
15:00 NNW 6 Sunny 16 101.9 -25 59 -30 -33
14:00 NNW 4 Sunny 16 101.9 -25 60 -30 -32
13:00 NW 4 Sunny 16 102.0 -25 65 -30 -32
12:00 NNW 3 Sunny 16 102.0 -26 71 -30 -31
11:00 NNW 5 Sunny 16 102.0 -27 77 -30 -35
10:00 NW 2 Sunny 16 102.0 -29 78 -32 -33
9:00 NW 2 Sunny 16 101.9 -33 75 -36 -38

Zoom-in to make a selection

Map of Prairies - Manitoba Lakes marine weather areas Lake Winnipeg South Basin - 45140 Lake Winnipeg North - 45144 Lake Winnipeg Narrows - 45145 Lake Of the Woods - 45148 Carberry Portage Southport Airport Wasagaming Sprague Winnipeg Richardson Int'l Airport Berens River Airport George Island Fisher Branch Gimli Harbour Gimli Grand Rapids Victoria Beach Dauphin Airport McCreary Oak Point Marine Swan River Norway House Airport Kenora Airport Royal Island
Legend:
buoy Buoy
land station Land Station

Prairies - Manitoba Lakes Area

Another Region

What we are doing

Date modified: